Trade Navigator — PCYA — position and weather

sailwx.info

Track history (hours):
 
Tides and Currents Weather Stations Pressure Air Temp Water Temp Dewpoint Dewpoint Depression Visibility Wind Speed Wind Dir Waves Ship Positions

Trade Navigator

Last reported at 2018-May-12 11:29 UTC. Time now 2018-May-21 06:53 UTC.
Position N 51°28' E 000°49'.
Warning: this ship's position is 8 days out of date.

Length 118 m; draft 8.1 m.

Type: Cargo ship. MMSI: 244650331.

Date/timePositionNaut miles runAvg speedWind from/ knotsBaromVisibWave heightAir tempDewpointWater temp
2018-May-12 11:29N 51°28' E 000°49'5 0.2
2018-May-11 04:40N 51°26' E 000°41'0 0.0
2018-May-11 04:25N 51°26' E 000°41'19 0.4
2018-May-09 05:57N 51°29' E 001°12'512.3
2018-May-09 05:30N 51°29' E 001°21'612.4
2018-May-09 05:00N 51°27' E 001°30'4 7.1
2018-May-09 04:30N 51°24' E 001°33'5 9.5
2018-May-09 04:00N 51°19' E 001°36'5 9.6
2018-May-09 03:30N 51°14' E 001°37'5 9.3
2018-May-09 03:00N 51°10' E 001°39'4 8.0
2018-May-09 02:30N 51°06' E 001°39'5 9.6
2018-May-09 02:00N 51°02' E 001°34'5 9.6
2018-May-09 01:30N 50°58' E 001°29'5 9.8
2018-May-09 01:00N 50°54' E 001°25'30 9.6
2018-May-08 21:52N 50°30' E 000°56'510.8
2018-May-08 21:25N 50°29' E 000°49'510.4
2018-May-08 20:53N 50°27' E 000°41'1110.3
2018-May-08 19:46N 50°24' E 000°24'410.3
2018-May-08 19:22N 50°23' E 000°17'410.3
2018-May-08 18:59N 50°22' E 000°11'510.4
2018-May-08 18:30N 50°20' E 000°04'510.3
2018-May-08 18:00N 50°19' W 000°04'5 9.9
2018-May-08 17:30N 50°18' W 000°11'510.1
2018-May-08 17:00N 50°17' W 000°19'510.2
2018-May-08 16:30N 50°15' W 000°27'510.3
2018-May-08 16:00N 50°14' W 000°34'5 9.8
2018-May-08 15:30N 50°12' W 000°42'510.2
2018-May-08 15:00N 50°11' W 000°49'510.7
2018-May-08 14:30N 50°09' W 000°57'611.8
2018-May-08 14:00N 50°08' W 001°06'612.0
2018-May-08 13:30N 50°06' W 001°15'612.3
2018-May-08 13:00N 50°05' W 001°24'612.2
2018-May-08 12:30N 50°03' W 001°34'612.2
2018-May-08 12:00N 50°01' W 001°42'611.8
2018-May-08 11:30N 49°59' W 001°51'711.5
2018-May-08 10:52N 49°58' W 002°02'511.1
2018-May-08 10:25N 49°56' W 002°10'610.8
2018-May-08 09:52N 49°55' W 002°19'410.5
2018-May-08 09:30N 49°54' W 002°25'510.3
2018-May-08 09:00N 49°52' W 002°32'610.6
2018-May-08 08:27N 49°51' W 002°41'510.5
2018-May-08 08:00N 49°50' W 002°48'510.2
2018-May-08 07:30N 49°47' W 002°55'610.4
2018-May-08 06:57N 49°44' W 003°03'510.4
2018-May-08 06:30N 49°42' W 003°09'510.5
2018-May-08 06:00N 49°39' W 003°16'610.6
2018-May-08 05:28N 49°36' W 003°23'510.7
2018-May-08 05:00N 49°34' W 003°30'510.7
2018-May-08 04:30N 49°31' W 003°37'610.8
2018-May-08 03:59N 49°28' W 003°45'610.7
2018-May-08 03:27N 49°25' W 003°52'510.7
2018-May-08 03:00N 49°23' W 003°58'610.6
2018-May-08 02:29N 49°20' W 004°06'610.7
2018-May-08 01:57N 49°17' W 004°13'510.7
2018-May-08 01:30N 49°15' W 004°20'510.8
2018-May-08 01:00N 49°12' W 004°27'510.8
2018-May-08 00:30N 49°09' W 004°34'510.8
2018-May-08 00:00N 49°07' W 004°41'510.8
2018-May-07 23:30N 49°04' W 004°48'510.9
2018-May-07 23:00N 49°01' W 004°55'611.2
2018-May-07 22:30N 48°58' W 005°03'611.4
2018-May-07 22:00N 48°55' W 005°10'711.2
2018-May-07 21:24N 48°52' W 005°19'411.1
2018-May-07 21:00N 48°50' W 005°25'610.7
2018-May-07 20:29N 48°47' W 005°32'5 9.6
2018-May-07 19:56N 48°43' W 005°37'511.6
2018-May-07 19:30N 48°39' W 005°41'611.6
2018-May-07 19:00N 48°33' W 005°45'611.6
2018-May-07 18:30N 48°28' W 005°49'612.0
2018-May-07 18:00N 48°23' W 005°53'611.9
2018-May-07 17:30N 48°18' W 005°57'1011.9
2018-May-07 16:38N 48°09' W 006°04'2211.7
2018-May-07 14:44N 47°49' W 006°20'311.5
2018-May-07 14:28N 47°46' W 006°22'45311.0
2018-May-05 21:20N 40°38' W 009°49'3111.2
2018-May-05 18:37N 40°07' W 009°49'110.9
2018-May-05 18:30N 40°06' W 009°49'611.0
2018-May-05 18:00N 40°01' W 009°49'510.8
2018-May-05 17:30N 39°55' W 009°49'510.8
2018-May-05 17:00N 39°50' W 009°49'611.1
2018-May-05 16:30N 39°44' W 009°49'510.9
2018-May-05 16:00N 39°39' W 009°49'510.8
2018-May-05 15:30N 39°33' W 009°50'510.8
2018-May-05 15:00N 39°28' W 009°50'510.5
2018-May-05 14:30N 39°23' W 009°50'510.7
2018-May-05 14:00N 39°17' W 009°50'510.7
2018-May-05 13:30N 39°12' W 009°50'510.8
2018-May-05 13:01N 39°07' W 009°50'510.7
2018-May-05 12:30N 39°01' W 009°50'510.7
2018-May-05 12:00N 38°56' W 009°50'510.9
2018-May-05 11:30N 38°50' W 009°50'510.8
2018-May-05 11:00N 38°45' W 009°50'510.5
2018-May-05 10:30N 38°40' W 009°49'510.6
2018-May-05 10:00N 38°35' W 009°48'510.5
2018-May-05 09:30N 38°30' W 009°46'510.5
2018-May-05 09:00N 38°24' W 009°45'510.6
2018-May-05 08:30N 38°19' W 009°43'510.8
2018-May-05 08:00N 38°14' W 009°42'510.8
2018-May-05 07:30N 38°09' W 009°40'510.9
2018-May-05 07:00N 38°03' W 009°39'611.1
2018-May-05 06:30N 37°58' W 009°37'510.9
2018-May-05 06:00N 37°53' W 009°36'510.4
2018-May-05 05:30N 37°48' W 009°34'510.7
2018-May-05 05:00N 37°42' W 009°33'510.8
2018-May-05 04:30N 37°37' W 009°31'510.6
2018-May-05 04:00N 37°32' W 009°30'510.6
2018-May-05 03:30N 37°27' W 009°28'510.4
2018-May-05 03:00N 37°22' W 009°27'2310.5
2018-May-05 00:50N 36°60' W 009°20'410.6
2018-May-05 00:29N 36°56' W 009°19'5 9.9
2018-May-04 23:57N 36°51' W 009°16'410.1
2018-May-04 23:30N 36°48' W 009°12'510.1
2018-May-04 22:58N 36°45' W 009°07'510.4
2018-May-04 22:30N 36°43' W 009°01'510.5
2018-May-04 22:00N 36°42' W 008°55'510.7
2018-May-04 21:30N 36°40' W 008°48'610.8
2018-May-04 20:58N 36°38' W 008°41'511.0
2018-May-04 20:30N 36°36' W 008°36'811.1
2018-May-04 19:46N 36°34' W 008°26'311.1
2018-May-04 19:30N 36°33' W 008°22'2611.0
2018-May-04 17:09N 36°25' W 007°52'211.0
2018-May-04 16:59N 36°24' W 007°50'11110.5
2018-May-04 06:25N 35°58' W 005°37'4 8.8
2018-May-04 06:00N 35°59' W 005°32'5 9.2
2018-May-04 05:30N 36°00' W 005°27'4 8.4
2018-May-04 05:00N 36°01' W 005°22'4 7.7
2018-May-04 04:30N 36°02' W 005°17'4 7.9
2018-May-04 04:00N 36°03' W 005°12'4 7.2
2018-May-04 03:30N 36°04' W 005°08'5 9.2
2018-May-04 03:00N 36°04' W 005°02'610.0
2018-May-04 02:24N 36°06' W 004°55'510.0
2018-May-04 01:57N 36°06' W 004°50'611.1
2018-May-04 01:27N 36°07' W 004°43'19410.9
2018-May-03 07:38N 36°56' W 000°49'211.7
2018-May-03 07:28N 36°57' W 000°47'611.6
2018-May-03 07:00N 36°59' W 000°41'2511.6
2018-May-03 04:50N 37°10' W 000°12'5011.1
2018-May-03 00:19N 37°22' E 000°48'310.3
2018-May-03 00:00N 37°23' E 000°52'510.2
2018-May-02 23:30N 37°23' E 000°59'510.1
2018-May-02 22:59N 37°24' E 001°05'5 9.9
2018-May-02 22:30N 37°26' E 001°11'  
Track history (hours):
 
Tides and Currents Weather Stations Pressure Air Temp Water Temp Dewpoint Dewpoint Depression Visibility Wind Speed Wind Dir Waves Ship Positions

Trade Navigator

Last reported at 2018-May-12 11:29 UTC. Time now 2018-May-21 06:53 UTC.
Position N 51°28' E 000°49'.
Warning: this ship's position is 8 days out of date.

Length 118 m; draft 8.1 m.

Type: Cargo ship. MMSI: 244650331.

Date/timePositionNaut miles runAvg speedWind from/ knotsBaromVisibWave heightAir tempDewpointWater temp
2018-May-12 11:29N 51°28' E 000°49'5 0.2
2018-May-11 04:40N 51°26' E 000°41'0 0.0
2018-May-11 04:25N 51°26' E 000°41'19 0.4
2018-May-09 05:57N 51°29' E 001°12'512.3
2018-May-09 05:30N 51°29' E 001°21'612.4
2018-May-09 05:00N 51°27' E 001°30'4 7.1
2018-May-09 04:30N 51°24' E 001°33'5 9.5
2018-May-09 04:00N 51°19' E 001°36'5 9.6
2018-May-09 03:30N 51°14' E 001°37'5 9.3
2018-May-09 03:00N 51°10' E 001°39'4 8.0
2018-May-09 02:30N 51°06' E 001°39'5 9.6
2018-May-09 02:00N 51°02' E 001°34'5 9.6
2018-May-09 01:30N 50°58' E 001°29'5 9.8
2018-May-09 01:00N 50°54' E 001°25'30 9.6
2018-May-08 21:52N 50°30' E 000°56'510.8
2018-May-08 21:25N 50°29' E 000°49'510.4
2018-May-08 20:53N 50°27' E 000°41'1110.3
2018-May-08 19:46N 50°24' E 000°24'410.3
2018-May-08 19:22N 50°23' E 000°17'410.3
2018-May-08 18:59N 50°22' E 000°11'510.4
2018-May-08 18:30N 50°20' E 000°04'510.3
2018-May-08 18:00N 50°19' W 000°04'5 9.9
2018-May-08 17:30N 50°18' W 000°11'510.1
2018-May-08 17:00N 50°17' W 000°19'510.2
2018-May-08 16:30N 50°15' W 000°27'510.3
2018-May-08 16:00N 50°14' W 000°34'5 9.8
2018-May-08 15:30N 50°12' W 000°42'510.2
2018-May-08 15:00N 50°11' W 000°49'510.7
2018-May-08 14:30N 50°09' W 000°57'611.8
2018-May-08 14:00N 50°08' W 001°06'612.0
2018-May-08 13:30N 50°06' W 001°15'612.3
2018-May-08 13:00N 50°05' W 001°24'612.2
2018-May-08 12:30N 50°03' W 001°34'612.2
2018-May-08 12:00N 50°01' W 001°42'611.8
2018-May-08 11:30N 49°59' W 001°51'711.5
2018-May-08 10:52N 49°58' W 002°02'511.1
2018-May-08 10:25N 49°56' W 002°10'610.8
2018-May-08 09:52N 49°55' W 002°19'410.5
2018-May-08 09:30N 49°54' W 002°25'510.3
2018-May-08 09:00N 49°52' W 002°32'610.6
2018-May-08 08:27N 49°51' W 002°41'510.5
2018-May-08 08:00N 49°50' W 002°48'510.2
2018-May-08 07:30N 49°47' W 002°55'610.4
2018-May-08 06:57N 49°44' W 003°03'510.4
2018-May-08 06:30N 49°42' W 003°09'510.5
2018-May-08 06:00N 49°39' W 003°16'610.6
2018-May-08 05:28N 49°36' W 003°23'510.7
2018-May-08 05:00N 49°34' W 003°30'510.7
2018-May-08 04:30N 49°31' W 003°37'610.8
2018-May-08 03:59N 49°28' W 003°45'610.7
2018-May-08 03:27N 49°25' W 003°52'510.7
2018-May-08 03:00N 49°23' W 003°58'610.6
2018-May-08 02:29N 49°20' W 004°06'610.7
2018-May-08 01:57N 49°17' W 004°13'510.7
2018-May-08 01:30N 49°15' W 004°20'510.8
2018-May-08 01:00N 49°12' W 004°27'510.8
2018-May-08 00:30N 49°09' W 004°34'510.8
2018-May-08 00:00N 49°07' W 004°41'510.8
2018-May-07 23:30N 49°04' W 004°48'510.9
2018-May-07 23:00N 49°01' W 004°55'611.2
2018-May-07 22:30N 48°58' W 005°03'611.4
2018-May-07 22:00N 48°55' W 005°10'711.2
2018-May-07 21:24N 48°52' W 005°19'411.1
2018-May-07 21:00N 48°50' W 005°25'610.7
2018-May-07 20:29N 48°47' W 005°32'5 9.6
2018-May-07 19:56N 48°43' W 005°37'511.6
2018-May-07 19:30N 48°39' W 005°41'611.6
2018-May-07 19:00N 48°33' W 005°45'611.6
2018-May-07 18:30N 48°28' W 005°49'612.0
2018-May-07 18:00N 48°23' W 005°53'611.9
2018-May-07 17:30N 48°18' W 005°57'1011.9
2018-May-07 16:38N 48°09' W 006°04'2211.7
2018-May-07 14:44N 47°49' W 006°20'311.5
2018-May-07 14:28N 47°46' W 006°22'45311.0
2018-May-05 21:20N 40°38' W 009°49'3111.2
2018-May-05 18:37N 40°07' W 009°49'110.9
2018-May-05 18:30N 40°06' W 009°49'611.0
2018-May-05 18:00N 40°01' W 009°49'510.8
2018-May-05 17:30N 39°55' W 009°49'510.8
2018-May-05 17:00N 39°50' W 009°49'611.1
2018-May-05 16:30N 39°44' W 009°49'510.9
2018-May-05 16:00N 39°39' W 009°49'510.8
2018-May-05 15:30N 39°33' W 009°50'510.8
2018-May-05 15:00N 39°28' W 009°50'510.5
2018-May-05 14:30N 39°23' W 009°50'510.7
2018-May-05 14:00N 39°17' W 009°50'510.7
2018-May-05 13:30N 39°12' W 009°50'510.8
2018-May-05 13:01N 39°07' W 009°50'510.7
2018-May-05 12:30N 39°01' W 009°50'510.7
2018-May-05 12:00N 38°56' W 009°50'510.9
2018-May-05 11:30N 38°50' W 009°50'510.8
2018-May-05 11:00N 38°45' W 009°50'510.5
2018-May-05 10:30N 38°40' W 009°49'510.6
2018-May-05 10:00N 38°35' W 009°48'510.5
2018-May-05 09:30N 38°30' W 009°46'510.5
2018-May-05 09:00N 38°24' W 009°45'510.6
2018-May-05 08:30N 38°19' W 009°43'510.8
2018-May-05 08:00N 38°14' W 009°42'510.8
2018-May-05 07:30N 38°09' W 009°40'510.9
2018-May-05 07:00N 38°03' W 009°39'611.1
2018-May-05 06:30N 37°58' W 009°37'510.9
2018-May-05 06:00N 37°53' W 009°36'510.4
2018-May-05 05:30N 37°48' W 009°34'510.7
2018-May-05 05:00N 37°42' W 009°33'510.8
2018-May-05 04:30N 37°37' W 009°31'510.6
2018-May-05 04:00N 37°32' W 009°30'510.6
2018-May-05 03:30N 37°27' W 009°28'510.4
2018-May-05 03:00N 37°22' W 009°27'2310.5
2018-May-05 00:50N 36°60' W 009°20'410.6
2018-May-05 00:29N 36°56' W 009°19'5 9.9
2018-May-04 23:57N 36°51' W 009°16'410.1
2018-May-04 23:30N 36°48' W 009°12'510.1
2018-May-04 22:58N 36°45' W 009°07'510.4
2018-May-04 22:30N 36°43' W 009°01'510.5
2018-May-04 22:00N 36°42' W 008°55'510.7
2018-May-04 21:30N 36°40' W 008°48'610.8
2018-May-04 20:58N 36°38' W 008°41'511.0
2018-May-04 20:30N 36°36' W 008°36'811.1
2018-May-04 19:46N 36°34' W 008°26'311.1
2018-May-04 19:30N 36°33' W 008°22'2611.0
2018-May-04 17:09N 36°25' W 007°52'211.0
2018-May-04 16:59N 36°24' W 007°50'11110.5
2018-May-04 06:25N 35°58' W 005°37'4 8.8
2018-May-04 06:00N 35°59' W 005°32'5 9.2
2018-May-04 05:30N 36°00' W 005°27'4 8.4
2018-May-04 05:00N 36°01' W 005°22'4 7.7
2018-May-04 04:30N 36°02' W 005°17'4 7.9
2018-May-04 04:00N 36°03' W 005°12'4 7.2
2018-May-04 03:30N 36°04' W 005°08'5 9.2
2018-May-04 03:00N 36°04' W 005°02'610.0
2018-May-04 02:24N 36°06' W 004°55'510.0
2018-May-04 01:57N 36°06' W 004°50'611.1
2018-May-04 01:27N 36°07' W 004°43'19410.9
2018-May-03 07:38N 36°56' W 000°49'211.7
2018-May-03 07:28N 36°57' W 000°47'611.6
2018-May-03 07:00N 36°59' W 000°41'2511.6
2018-May-03 04:50N 37°10' W 000°12'5011.1
2018-May-03 00:19N 37°22' E 000°48'310.3
2018-May-03 00:00N 37°23' E 000°52'510.2
2018-May-02 23:30N 37°23' E 000°59'510.1
2018-May-02 22:59N 37°24' E 001°05'5 9.9
2018-May-02 22:30N 37°26' E 001°11'  

Dump ship's entire track history